Time;durP1;ratioP1;P1;durP2;ratioP2;P2;SDS_P1;SDS_P2;PMS_P1;PMS_P2;Temp;Humidity;BMP_temperature;BMP_pressure;BME280_temperature;BME280_humidity;BME280_pressure;Samples;Min_cycle;Max_cycle;Signal;HPM_P1;HPM_P2
2020/12/07 00:02:05;;;;;;;3.63;3.30;;;16.50;55.00;;;;;;5023323;28;20585;-58
2020/12/07 00:04:31;;;;;;;4.60;4.13;;;16.50;55.00;;;;;;5017038;28;20226;-59
2020/12/07 00:06:59;;;;;;;4.07;3.73;;;16.50;55.00;;;;;;5004462;28;20239;-57
2020/12/07 00:09:27;;;;;;;4.20;3.73;;;16.50;55.10;;;;;;5016089;28;20231;-57
2020/12/07 00:11:53;;;;;;;5.03;4.20;;;16.40;55.00;;;;;;5026161;28;20770;-57
2020/12/07 00:14:19;;;;;;;4.63;3.73;;;16.50;55.20;;;;;;5019831;28;20219;-57
2020/12/07 00:16:46;;;;;;;4.27;3.67;;;16.40;55.20;;;;;;5020307;28;20232;-58
2020/12/07 00:19:12;;;;;;;4.30;3.90;;;16.40;55.20;;;;;;5006075;28;20223;-57
2020/12/07 00:21:42;;;;;;;4.27;3.80;;;16.40;55.30;;;;;;5019669;28;20250;-60
2020/12/07 00:24:08;;;;;;;4.43;4.03;;;16.40;55.20;;;;;;5005012;28;20691;-59
2020/12/07 00:26:35;;;;;;;4.97;4.37;;;16.40;55.30;;;;;;5006118;28;20235;-59
2020/12/07 00:29:02;;;;;;;4.87;4.47;;;16.40;55.90;;;;;;5001266;28;20591;-60
2020/12/07 00:31:28;;;;;;;4.07;3.63;;;16.40;55.40;;;;;;5015988;28;20688;-59
2020/12/07 00:33:58;;;;;;;4.63;4.23;;;16.40;55.50;;;;;;5004135;28;20277;-59
2020/12/07 00:36:25;;;;;;;4.10;3.70;;;16.40;55.50;;;;;;5025779;28;20249;-59
2020/12/07 00:38:53;;;;;;;4.00;3.60;;;16.30;55.40;;;;;;5027144;28;20222;-59
2020/12/07 00:41:23;;;;;;;4.30;3.90;;;16.40;55.50;;;;;;5020538;28;20231;-59
2020/12/07 00:43:50;;;;;;;4.40;4.00;;;16.30;55.50;;;;;;5026121;28;20584;-59
2020/12/07 00:46:17;;;;;;;4.23;3.83;;;16.30;55.50;;;;;;5019440;28;20249;-59
2020/12/07 00:48:43;;;;;;;4.20;3.80;;;16.40;55.50;;;;;;5024382;28;20604;-57
2020/12/07 00:51:10;;;;;;;3.90;3.50;;;16.30;55.60;;;;;;5019273;28;20732;-60
2020/12/07 00:53:37;;;;;;;4.43;4.03;;;16.30;55.60;;;;;;5026133;28;20675;-60
2020/12/07 00:56:03;;;;;;;4.00;3.60;;;16.30;55.70;;;;;;5019395;28;20227;-58
2020/12/07 00:58:29;;;;;;;4.43;4.03;;;16.30;55.70;;;;;;5018654;28;20235;-60
2020/12/07 01:00:57;;;;;;;4.27;3.73;;;16.30;55.70;;;;;;5005465;28;20227;-59
2020/12/07 01:03:23;;;;;;;6.27;3.80;;;16.30;55.80;;;;;;5018957;28;20309;-58
2020/12/07 01:05:49;;;;;;;4.10;3.53;;;16.30;55.80;;;;;;5001550;28;20297;-59
2020/12/07 01:08:15;;;;;;;4.53;4.00;;;16.20;55.70;;;;;;5018118;28;20229;-59
2020/12/07 01:10:41;;;;;;;4.93;4.17;;;16.30;55.80;;;;;;5019256;28;20683;-59
2020/12/07 01:13:07;;;;;;;4.10;3.70;;;16.20;55.80;;;;;;5024278;28;20230;-60
2020/12/07 01:15:34;;;;;;;4.53;4.10;;;16.20;55.80;;;;;;5017820;28;20223;-60
2020/12/07 01:18:00;;;;;;;4.20;3.80;;;16.20;55.90;;;;;;5027063;28;20581;-60
2020/12/07 01:20:26;;;;;;;4.00;3.63;;;16.20;55.90;;;;;;5027379;28;20289;-60
2020/12/07 01:22:53;;;;;;;4.20;3.80;;;16.20;56.00;;;;;;5017112;28;20276;-59
2020/12/07 01:25:19;;;;;;;4.37;3.97;;;16.20;55.90;;;;;;5023936;28;20218;-60
2020/12/07 01:27:45;;;;;;;4.23;3.70;;;16.20;56.00;;;;;;5016249;28;20756;-59
2020/12/07 01:30:11;;;;;;;4.60;4.20;;;16.10;56.00;;;;;;5025719;28;20229;-60
2020/12/07 01:32:38;;;;;;;4.40;4.00;;;16.20;56.00;;;;;;5016816;28;20223;-61
2020/12/07 01:35:04;;;;;;;3.50;3.20;;;16.10;56.00;;;;;;5027699;28;20297;-61
2020/12/07 01:37:31;;;;;;;4.33;3.93;;;16.20;56.10;;;;;;5018298;28;20226;-59
2020/12/07 01:39:57;;;;;;;4.37;3.87;;;16.10;56.00;;;;;;5027503;28;20234;-59
2020/12/07 01:42:24;;;;;;;4.03;3.63;;;16.10;56.10;;;;;;5016687;28;20219;-60
2020/12/07 01:44:50;;;;;;;4.40;3.97;;;16.10;56.20;;;;;;5026428;28;20231;-60
2020/12/07 01:47:21;;;;;;;4.30;3.90;;;16.10;56.20;;;;;;5016621;28;20618;-60
2020/12/07 01:49:48;;;;;;;4.40;3.90;;;16.10;56.20;;;;;;5026671;28;20237;-60
2020/12/07 01:52:14;;;;;;;4.83;4.43;;;16.10;56.20;;;;;;5017392;28;20219;-59
2020/12/07 01:54:42;;;;;;;4.77;4.37;;;16.10;56.10;;;;;;5026594;28;20638;-59
2020/12/07 01:57:08;;;;;;;4.77;4.27;;;16.10;56.20;;;;;;5029039;28;20227;-61
2020/12/07 01:59:34;;;;;;;4.40;4.00;;;16.10;56.30;;;;;;5017037;28;20679;-60
2020/12/07 02:02:01;;;;;;;4.40;4.00;;;16.10;56.20;;;;;;5022041;28;20686;-60
2020/12/07 02:04:28;;;;;;;4.10;3.70;;;16.10;56.20;;;;;;5020698;28;20285;-59
2020/12/07 02:06:54;;;;;;;5.07;4.57;;;16.10;56.20;;;;;;5027344;28;20733;-59
2020/12/07 02:09:28;;;;;;;4.20;3.80;;;16.10;56.20;;;;;;5011415;28;20292;-61
2020/12/07 02:11:54;;;;;;;4.13;3.73;;;16.10;56.30;;;;;;5018741;28;20229;-62
2020/12/07 02:14:21;;;;;;;4.70;4.20;;;16.00;56.20;;;;;;5002390;28;20230;-59
2020/12/07 02:16:47;;;;;;;4.20;3.80;;;16.10;56.30;;;;;;5008092;28;20286;-59
2020/12/07 02:19:14;;;;;;;4.97;4.17;;;16.00;56.20;;;;;;4999922;28;20243;-59
2020/12/07 02:21:40;;;;;;;4.83;4.07;;;16.10;56.30;;;;;;5011193;28;20818;-59
2020/12/07 02:24:06;;;;;;;5.10;4.37;;;16.00;56.20;;;;;;5006646;28;20250;-59
2020/12/07 02:26:33;;;;;;;4.10;3.70;;;16.00;56.20;;;;;;5008437;28;20223;-60
2020/12/07 02:29:00;;;;;;;4.47;4.07;;;16.00;56.30;;;;;;4999888;28;20224;-59
2020/12/07 02:31:26;;;;;;;4.20;3.80;;;16.00;56.30;;;;;;5027059;28;20238;-59
2020/12/07 02:33:52;;;;;;;4.90;4.17;;;16.00;56.30;;;;;;5009418;28;20293;-59
2020/12/07 02:36:18;;;;;;;4.43;4.03;;;16.00;56.30;;;;;;5015931;28;20622;-60
2020/12/07 02:38:54;;;;;;;4.33;3.93;;;16.00;56.30;;;;;;5003204;28;20635;-58
2020/12/07 02:41:20;;;;;;;4.40;4.00;;;16.00;56.40;;;;;;5006663;28;20246;-59
2020/12/07 02:43:46;;;;;;;5.50;4.13;;;16.00;56.40;;;;;;5008104;28;20231;-59
2020/12/07 02:46:13;;;;;;;4.47;3.60;;;16.00;56.50;;;;;;5000973;28;20226;-59
2020/12/07 02:48:39;;;;;;;4.50;4.10;;;16.00;56.60;;;;;;5014612;28;20651;-59
2020/12/07 02:51:05;;;;;;;4.60;4.17;;;16.00;56.50;;;;;;5019848;28;20234;-59
2020/12/07 02:53:31;;;;;;;4.57;4.00;;;16.00;56.60;;;;;;5015507;28;20506;-59
2020/12/07 02:55:57;;;;;;;4.20;3.70;;;16.00;56.60;;;;;;5018170;28;20226;-59
2020/12/07 02:58:23;;;;;;;4.10;3.70;;;16.00;56.60;;;;;;5028228;28;20235;-59
2020/12/07 03:00:50;;;;;;;4.00;3.60;;;16.00;56.60;;;;;;5022169;28;20237;-60
2020/12/07 03:03:16;;;;;;;5.30;4.17;;;16.00;56.60;;;;;;5017146;28;20244;-59
2020/12/07 03:05:42;;;;;;;4.73;4.17;;;16.00;56.70;;;;;;5019474;28;20253;-59
2020/12/07 03:08:08;;;;;;;4.60;4.03;;;16.00;56.70;;;;;;5026985;28;20230;-60
2020/12/07 03:10:34;;;;;;;3.83;3.53;;;16.00;56.70;;;;;;5010999;28;20587;-61
2020/12/07 03:13:01;;;;;;;4.30;3.90;;;16.00;56.70;;;;;;5006716;28;20223;-61
2020/12/07 03:15:27;;;;;;;4.27;3.87;;;16.00;56.60;;;;;;5002954;28;20243;-59
2020/12/07 03:17:55;;;;;;;4.20;3.80;;;16.00;56.70;;;;;;5020982;28;20227;-60
2020/12/07 03:20:21;;;;;;;6.00;3.70;;;15.90;56.70;;;;;;5027921;28;22808;-59
2020/12/07 03:22:47;;;;;;;3.80;3.50;;;15.90;56.70;;;;;;5013390;28;20223;-59
2020/12/07 03:25:13;;;;;;;4.30;3.90;;;15.90;56.70;;;;;;5024812;28;20231;-59
2020/12/07 03:27:39;;;;;;;4.13;3.80;;;16.00;56.70;;;;;;5004780;28;20243;-60
2020/12/07 03:30:06;;;;;;;4.10;3.57;;;16.00;56.70;;;;;;5008402;28;20615;-60
2020/12/07 03:32:32;;;;;;;4.07;3.67;;;15.90;56.60;;;;;;5020558;28;20230;-61
2020/12/07 03:34:58;;;;;;;4.33;3.83;;;16.00;56.70;;;;;;5022955;28;20642;-61
2020/12/07 03:37:24;;;;;;;4.30;3.90;;;15.90;56.70;;;;;;5010053;28;20232;-61
2020/12/07 03:39:51;;;;;;;4.90;4.07;;;15.90;56.70;;;;;;5006592;28;20222;-60
2020/12/07 03:42:17;;;;;;;5.33;3.70;;;15.90;56.80;;;;;;4997678;28;20238;-59
2020/12/07 03:44:43;;;;;;;4.00;3.60;;;15.90;56.70;;;;;;5009240;28;20817;-60
2020/12/07 03:47:09;;;;;;;4.03;3.63;;;15.90;56.70;;;;;;4999434;28;20293;-60
2020/12/07 03:49:36;;;;;;;4.07;3.70;;;15.90;56.70;;;;;;5016230;28;20230;-59
2020/12/07 03:52:02;;;;;;;3.80;3.40;;;15.90;56.70;;;;;;5024382;28;20226;-60
2020/12/07 03:54:29;;;;;;;4.73;4.03;;;15.90;56.80;;;;;;5027806;28;20780;-59
2020/12/07 03:56:55;;;;;;;3.93;3.53;;;15.90;56.70;;;;;;5027395;28;20223;-59
2020/12/07 03:59:22;;;;;;;4.23;3.80;;;15.90;56.70;;;;;;5019425;28;20223;-61
2020/12/07 04:01:49;;;;;;;4.07;3.67;;;15.90;56.80;;;;;;5020618;28;20235;-61
2020/12/07 04:04:19;;;;;;;3.60;3.30;;;15.90;56.80;;;;;;5017781;28;20219;-59
2020/12/07 04:06:46;;;;;;;4.07;3.70;;;15.90;56.80;;;;;;5025993;28;20258;-59
2020/12/07 04:09:13;;;;;;;3.67;3.37;;;15.90;56.80;;;;;;5016857;28;20218;-59
2020/12/07 04:11:39;;;;;;;3.90;3.60;;;15.90;56.90;;;;;;5027469;28;20265;-60
2020/12/07 04:14:05;;;;;;;4.60;3.47;;;15.90;56.80;;;;;;5018624;28;21483;-60
2020/12/07 04:16:31;;;;;;;4.27;3.87;;;15.90;56.90;;;;;;5022663;28;20226;-61
2020/12/07 04:18:57;;;;;;;3.30;3.00;;;15.90;56.90;;;;;;5004559;28;20235;-60
2020/12/07 04:21:24;;;;;;;4.77;3.33;;;15.80;56.80;;;;;;5010535;28;20652;-60
2020/12/07 04:23:50;;;;;;;3.40;3.10;;;15.90;56.90;;;;;;5016894;28;20223;-61
2020/12/07 04:26:16;;;;;;;5.70;3.50;;;15.80;56.90;;;;;;5025605;28;20230;-59
2020/12/07 04:28:42;;;;;;;3.60;3.30;;;15.90;56.90;;;;;;5017045;28;20227;-59
2020/12/07 04:31:09;;;;;;;4.53;3.70;;;15.90;56.90;;;;;;5025665;28;20241;-59
2020/12/07 04:33:35;;;;;;;3.87;3.57;;;15.90;56.90;;;;;;5025915;28;20231;-59
2020/12/07 04:36:01;;;;;;;4.00;3.07;;;15.80;56.80;;;;;;5017769;28;20225;-59
2020/12/07 04:38:27;;;;;;;3.20;2.90;;;15.80;56.90;;;;;;5026093;28;20230;-59
2020/12/07 04:40:54;;;;;;;4.10;3.23;;;15.90;56.90;;;;;;5017672;28;20233;-60
2020/12/07 04:43:21;;;;;;;3.47;3.17;;;15.80;56.90;;;;;;5025700;28;20584;-60
2020/12/07 04:45:47;;;;;;;4.07;3.77;;;15.80;56.80;;;;;;5017399;28;20215;-59
2020/12/07 04:48:14;;;;;;;3.50;3.07;;;15.90;56.80;;;;;;5027102;28;20701;-58
2020/12/07 04:50:40;;;;;;;4.13;3.73;;;15.80;56.70;;;;;;5020141;28;20226;-58
2020/12/07 04:53:08;;;;;;;4.17;3.77;;;15.80;56.70;;;;;;5026784;28;20227;-61
2020/12/07 04:55:34;;;;;;;5.27;3.53;;;15.80;56.70;;;;;;5017510;28;20582;-60
2020/12/07 04:58:01;;;;;;;4.50;4.07;;;15.90;56.60;;;;;;5026930;28;20245;-59
2020/12/07 05:00:27;;;;;;;4.03;3.73;;;15.90;56.70;;;;;;5017786;28;20918;-59
2020/12/07 05:02:55;;;;;;;3.83;3.50;;;15.90;56.60;;;;;;5026445;28;20580;-61
2020/12/07 05:05:23;;;;;;;4.37;3.97;;;15.80;56.50;;;;;;5017125;28;20218;-61
2020/12/07 05:07:51;;;;;;;5.03;4.60;;;15.80;56.50;;;;;;5025852;28;20227;-61
2020/12/07 05:10:38;;;;;;;4.40;4.00;;;15.90;56.60;;;;;;5014808;28;20233;-60
2020/12/07 05:13:17;;;;;;;4.70;4.20;;;15.90;56.50;;;;;;5025890;28;20231;-59
2020/12/07 05:15:44;;;;;;;4.70;4.30;;;15.80;56.40;;;;;;5016699;28;20828;-60
2020/12/07 05:18:10;;;;;;;4.43;4.03;;;15.80;56.50;;;;;;5011871;28;20659;-58
2020/12/07 05:20:37;;;;;;;4.73;4.23;;;15.90;56.60;;;;;;5016255;28;20231;-60
2020/12/07 05:23:03;;;;;;;4.87;4.37;;;15.80;56.50;;;;;;5010414;28;20228;-61
2020/12/07 05:25:30;;;;;;;6.17;4.47;;;15.80;56.40;;;;;;5015909;28;20280;-60
2020/12/07 05:27:59;;;;;;;5.33;4.83;;;15.80;56.50;;;;;;5019309;28;20644;-60
2020/12/07 05:30:32;;;;;;;5.23;4.73;;;15.80;56.60;;;;;;5024791;28;20222;-60
2020/12/07 05:33:01;;;;;;;5.53;4.73;;;15.80;56.60;;;;;;5016339;28;20218;-60
2020/12/07 05:35:27;;;;;;;5.60;4.57;;;15.80;56.50;;;;;;5008393;28;20244;-61
2020/12/07 05:37:53;;;;;;;5.27;4.77;;;15.80;56.60;;;;;;4995544;28;20569;-60
2020/12/07 05:40:19;;;;;;;4.70;4.30;;;15.80;56.60;;;;;;5008741;28;20251;-60
2020/12/07 05:42:46;;;;;;;6.43;4.60;;;15.80;57.20;;;;;;5011127;28;20230;-61
2020/12/07 05:45:12;;;;;;;5.17;4.67;;;15.80;56.60;;;;;;5029813;28;20234;-60
2020/12/07 05:47:39;;;;;;;5.70;4.80;;;15.80;56.60;;;;;;5020421;28;22388;-61
2020/12/07 05:50:09;;;;;;;6.50;5.73;;;15.80;56.60;;;;;;5028555;28;20222;-60
2020/12/07 05:52:49;;;;;;;6.50;5.47;;;15.80;56.50;;;;;;5020512;28;20715;-60
2020/12/07 05:55:20;;;;;;;6.37;5.67;;;15.80;56.70;;;;;;5031666;28;20866;-60
2020/12/07 05:58:03;;;;;;;7.80;5.47;;;15.80;56.60;;;;;;5021139;28;20222;-59
2020/12/07 06:00:34;;;;;;;5.87;5.27;;;15.80;56.50;;;;;;5028557;28;20219;-59
2020/12/07 06:03:01;;;;;;;5.93;5.33;;;15.80;56.50;;;;;;5016097;28;20234;-61
2020/12/07 06:05:28;;;;;;;11.67;5.80;;;15.80;56.50;;;;;;5029858;28;20585;-60
2020/12/07 06:08:01;;;;;;;26.53;9.10;;;15.80;56.50;;;;;;5015578;28;20227;-61
2020/12/07 06:10:41;;;;;;;21.00;9.27;;;15.80;57.90;;;;;;5027742;28;20330;-59
2020/12/07 06:13:13;;;;;;;18.23;8.73;;;15.80;57.60;;;;;;5013783;28;20981;-61
2020/12/07 06:15:47;;;;;;;18.07;8.43;;;15.80;57.30;;;;;;5028844;28;20273;-61
2020/12/07 06:18:33;;;;;;;14.87;8.17;;;15.80;57.40;;;;;;5006542;28;20727;-61
2020/12/07 06:21:10;;;;;;;16.63;7.93;;;15.80;57.10;;;;;;5027996;28;20284;-61
2020/12/07 06:23:41;;;;;;;17.53;7.87;;;15.80;57.10;;;;;;5011024;28;20230;-60
2020/12/07 06:26:09;;;;;;;18.53;7.73;;;15.90;57.10;;;;;;5008164;28;20289;-61
2020/12/07 06:28:38;;;;;;;12.67;7.57;;;15.80;56.90;;;;;;5002475;28;20282;-60
2020/12/07 06:31:09;;;;;;;13.33;7.37;;;15.80;56.90;;;;;;5027972;28;20641;-60
2020/12/07 06:33:50;;;;;;;13.63;7.70;;;15.80;56.90;;;;;;5026808;28;20238;-60
2020/12/07 06:36:34;;;;;;;12.17;6.77;;;15.80;56.80;;;;;;5005224;28;20580;-60
2020/12/07 06:39:07;;;;;;;12.50;6.93;;;15.80;56.80;;;;;;5005060;28;20989;-60
2020/12/07 06:41:42;;;;;;;11.20;6.27;;;15.80;56.60;;;;;;5010914;28;20242;-61
2020/12/07 06:44:13;;;;;;;10.87;6.80;;;15.80;56.70;;;;;;5017025;28;20245;-60
2020/12/07 06:46:58;;;;;;;13.57;6.40;;;15.80;56.70;;;;;;5008066;28;20230;-60
2020/12/07 06:49:41;;;;;;;12.17;6.73;;;15.80;56.70;;;;;;5010689;28;20631;-60
2020/12/07 06:52:13;;;;;;;13.90;6.43;;;15.80;57.20;;;;;;5020602;28;20224;-60
2020/12/07 06:57:32;;;;;;;9.17;6.30;;;16.00;57.20;;;;;;5025551;28;20633;-60
2020/12/07 07:00:00;;;;;;;9.67;6.00;;;16.10;57.30;;;;;;5012913;28;21613;-59
2020/12/07 07:02:28;;;;;;;10.97;6.33;;;16.10;57.20;;;;;;5008206;28;20244;-63
2020/12/07 07:04:57;;;;;;;7.23;5.90;;;16.10;57.30;;;;;;5006302;28;20231;-61
2020/12/07 07:07:25;;;;;;;8.73;5.90;;;16.20;57.20;;;;;;5002078;28;20297;-62
2020/12/07 07:09:52;;;;;;;11.70;6.40;;;16.30;57.60;;;;;;5018795;28;20231;-62
2020/12/07 07:12:19;;;;;;;8.60;6.10;;;16.40;57.90;;;;;;5018560;28;20234;-62
2020/12/07 07:14:48;;;;;;;11.63;6.40;;;16.50;57.70;;;;;;5024560;28;20284;-64
2020/12/07 07:17:15;;;;;;;9.60;5.40;;;16.60;58.30;;;;;;5031305;28;20226;-64
2020/12/07 07:19:42;;;;;;;9.00;5.20;;;16.70;58.00;;;;;;5026804;28;20285;-66
2020/12/07 07:22:09;;;;;;;12.07;5.70;;;16.70;57.90;;;;;;5028050;28;20250;-60
2020/12/07 07:24:47;;;;;;;7.33;5.37;;;16.70;57.80;;;;;;5028883;28;20276;-60
2020/12/07 07:29:58;;;;;;;7.13;5.10;;;16.70;57.50;;;;;;5024743;28;20234;-62
2020/12/07 07:32:25;;;;;;;7.73;4.83;;;16.80;57.50;;;;;;5019955;28;20281;-62
2020/12/07 07:34:52;;;;;;;35.20;10.10;;;16.80;57.40;;;;;;5026166;28;20215;-62
2020/12/07 07:37:18;;;;;;;48.17;11.60;;;16.80;57.30;;;;;;5025204;28;20223;-64
2020/12/07 07:39:48;;;;;;;48.43;14.10;;;16.90;57.60;;;;;;5026519;28;20238;-62
2020/12/07 07:42:16;;;;;;;51.33;13.40;;;16.90;57.90;;;;;;5014102;28;20609;-62
2020/12/07 07:44:45;;;;;;;53.17;13.83;;;16.90;57.80;;;;;;5025089;28;20234;-62
2020/12/07 07:47:20;;;;;;;41.53;13.07;;;17.00;57.60;;;;;;5017822;28;20694;-62
2020/12/07 07:57:55;;;;;;;28.80;12.07;;;17.10;57.30;;;;;;5023936;28;20235;-62
2020/12/07 08:17:28;;;;;;;22.97;10.17;;;17.30;56.50;;;;;;5000814;28;21710;-60
2020/12/07 08:20:06;;;;;;;24.57;10.77;;;17.30;56.20;;;;;;4997547;28;20235;-59
2020/12/07 08:22:33;;;;;;;14.83;9.63;;;17.30;55.60;;;;;;5021493;28;20940;-57
2020/12/07 08:25:04;;;;;;;20.60;10.50;;;17.20;55.50;;;;;;5012138;28;20871;-59
2020/12/07 08:27:34;;;;;;;19.77;9.47;;;17.10;55.30;;;;;;5019046;28;20301;-58
2020/12/07 08:30:05;;;;;;;17.20;9.60;;;17.10;55.60;;;;;;5000847;28;20216;-60
2020/12/07 08:32:32;;;;;;;16.27;9.77;;;17.00;55.30;;;;;;5016240;28;20243;-59
2020/12/07 08:35:18;;;;;;;16.30;9.50;;;17.00;55.30;;;;;;5018666;28;20289;-59
2020/12/07 08:37:45;;;;;;;15.77;9.83;;;17.00;55.30;;;;;;5020595;28;20227;-57
2020/12/07 08:40:13;;;;;;;15.03;9.67;;;17.00;55.30;;;;;;5016578;28;20222;-59
2020/12/07 08:42:40;;;;;;;14.20;9.07;;;17.00;55.30;;;;;;5026132;28;20227;-60
2020/12/07 08:45:06;;;;;;;13.90;9.17;;;17.00;55.40;;;;;;5009699;28;20231;-57
2020/12/07 08:47:33;;;;;;;16.07;9.40;;;16.90;55.20;;;;;;5023004;28;20285;-60
2020/12/07 08:50:02;;;;;;;14.80;9.07;;;16.90;55.20;;;;;;5018995;28;20242;-60
2020/12/07 08:52:29;;;;;;;13.20;8.87;;;16.90;55.30;;;;;;5024188;28;20233;-59
2020/12/07 08:54:56;;;;;;;19.07;9.17;;;17.00;56.20;;;;;;5016408;28;20698;-58
2020/12/07 08:57:23;;;;;;;12.97;9.30;;;17.10;56.30;;;;;;5025361;28;20235;-61
2020/12/07 08:59:49;;;;;;;12.37;8.90;;;17.20;56.00;;;;;;5019678;28;20276;-59
2020/12/07 09:02:15;;;;;;;14.50;8.17;;;17.50;56.30;;;;;;5024538;28;20252;-57
2020/12/07 09:04:41;;;;;;;12.70;7.40;;;18.10;54.30;;;;;;5025577;28;20231;-57
2020/12/07 09:07:07;;;;;;;11.70;8.40;;;18.70;52.90;;;;;;5016734;28;20223;-59
2020/12/07 09:09:33;;;;;;;14.00;8.40;;;19.00;51.70;;;;;;5025321;28;20245;-60
2020/12/07 09:12:00;;;;;;;16.90;8.30;;;19.30;51.40;;;;;;5017164;28;20227;-59
2020/12/07 09:14:27;;;;;;;12.87;8.13;;;19.50;51.00;;;;;;5024963;28;20225;-60
2020/12/07 09:16:53;;;;;;;10.23;7.70;;;19.70;50.40;;;;;;5017304;28;20261;-62
2020/12/07 09:19:20;;;;;;;11.93;8.43;;;19.90;49.90;;;;;;5024587;28;20223;-57
2020/12/07 09:21:46;;;;;;;13.47;8.97;;;20.00;49.70;;;;;;5014514;28;20663;-62
2020/12/07 09:24:17;;;;;;;12.50;8.97;;;20.10;49.60;;;;;;5024764;28;20245;-59
2020/12/07 09:26:43;;;;;;;13.37;9.47;;;20.30;49.50;;;;;;5011837;28;20286;-59
2020/12/07 09:29:09;;;;;;;11.77;8.07;;;20.40;48.80;;;;;;5023622;28;20254;-60
2020/12/07 09:31:36;;;;;;;12.37;8.43;;;20.50;49.00;;;;;;5006090;28;20238;-59
2020/12/07 09:34:02;;;;;;;14.63;9.20;;;20.70;48.90;;;;;;5024366;28;20577;-57
2020/12/07 09:36:44;;;;;;;15.20;10.17;;;20.80;48.50;;;;;;4998341;28;21624;-58
2020/12/07 09:39:10;;;;;;;14.53;9.87;;;20.50;48.20;;;;;;5002252;28;20700;-58
2020/12/07 09:41:37;;;;;;;14.93;10.53;;;20.30;48.30;;;;;;4995471;28;20606;-57
2020/12/07 09:44:03;;;;;;;20.60;10.37;;;20.20;48.60;;;;;;5004250;28;20243;-59
2020/12/07 09:46:29;;;;;;;13.13;10.33;;;20.10;48.80;;;;;;5003335;28;20235;-59
2020/12/07 09:48:55;;;;;;;14.40;10.03;;;20.50;49.00;;;;;;5001171;28;20235;-58
2020/12/07 09:51:22;;;;;;;15.23;10.23;;;20.70;48.60;;;;;;5002395;28;20565;-58
2020/12/07 09:53:48;;;;;;;12.73;9.80;;;20.90;48.20;;;;;;4993709;28;20216;-58
2020/12/07 09:56:14;;;;;;;13.63;9.87;;;21.10;48.40;;;;;;5011432;28;20222;-60
2020/12/07 09:58:41;;;;;;;12.87;10.03;;;21.20;48.00;;;;;;5011925;28;20593;-58
2020/12/07 10:01:07;;;;;;;13.00;9.50;;;21.40;47.80;;;;;;5022149;28;20223;-59
2020/12/07 10:03:33;;;;;;;13.47;9.80;;;21.90;47.10;;;;;;5014110;28;20261;-59
2020/12/07 10:05:59;;;;;;;15.53;9.83;;;22.20;46.90;;;;;;5011410;28;20222;-59
2020/12/07 10:08:25;;;;;;;13.63;9.40;;;22.50;46.40;;;;;;5017908;28;20223;-59
2020/12/07 10:10:52;;;;;;;12.03;9.47;;;22.60;46.00;;;;;;5008469;28;20691;-60
2020/12/07 10:13:26;;;;;;;11.97;9.83;;;22.70;45.90;;;;;;4989081;28;20214;-59
2020/12/07 10:15:53;;;;;;;16.60;9.70;;;22.90;45.60;;;;;;4998714;28;20226;-60
2020/12/07 10:18:19;;;;;;;13.63;9.93;;;23.00;45.30;;;;;;5013988;28;21941;-57
2020/12/07 10:20:46;;;;;;;11.10;9.50;;;23.10;45.10;;;;;;5007962;28;20669;-61
2020/12/07 10:23:13;;;;;;;11.43;9.40;;;23.20;45.00;;;;;;5008639;28;20238;-58
2020/12/07 10:25:40;;;;;;;12.87;9.57;;;23.20;44.70;;;;;;5023878;28;20288;-62
2020/12/07 10:28:06;;;;;;;12.07;9.73;;;23.20;44.70;;;;;;5027856;28;20238;-58
2020/12/07 10:30:33;;;;;;;10.60;9.33;;;23.30;44.80;;;;;;5019879;28;20243;-56
2020/12/07 10:32:59;;;;;;;13.00;9.60;;;23.40;44.70;;;;;;5026520;28;20226;-57
2020/12/07 10:35:25;;;;;;;10.40;9.03;;;23.50;44.30;;;;;;5020245;28;20230;-57
2020/12/07 10:38:02;;;;;;;12.23;9.40;;;23.60;43.90;;;;;;5026706;28;20575;-59
2020/12/07 10:40:28;;;;;;;10.50;9.37;;;23.70;43.50;;;;;;5020299;28;20237;-57
2020/12/07 10:42:54;;;;;;;11.23;9.43;;;23.80;43.60;;;;;;5025725;28;20580;-58
2020/12/07 10:45:21;;;;;;;10.43;9.33;;;23.90;43.40;;;;;;5015050;28;20238;-59
2020/12/07 10:47:48;;;;;;;11.53;9.30;;;23.90;43.30;;;;;;5028219;28;20376;-57
2020/12/07 10:50:14;;;;;;;11.00;8.93;;;24.00;43.30;;;;;;5007333;28;20717;-57
2020/12/07 10:52:41;;;;;;;11.43;9.67;;;24.20;42.90;;;;;;5024933;28;20227;-56
2020/12/07 10:55:07;;;;;;;10.37;8.60;;;24.20;43.00;;;;;;4998401;28;20235;-61
2020/12/07 10:57:33;;;;;;;10.33;9.23;;;24.20;42.50;;;;;;5006225;28;20842;-59
2020/12/07 10:59:59;;;;;;;10.73;9.57;;;24.30;42.50;;;;;;4999457;28;20250;-60
2020/12/07 11:02:28;;;;;;;10.40;9.00;;;24.30;42.50;;;;;;4995364;28;20235;-59
2020/12/07 11:04:54;;;;;;;11.00;9.83;;;24.20;42.40;;;;;;5007573;28;20278;-59
2020/12/07 11:07:23;;;;;;;10.30;9.23;;;24.30;42.50;;;;;;5002768;28;20227;-58
2020/12/07 11:09:49;;;;;;;16.77;12.57;;;24.30;42.30;;;;;;5013076;28;20230;-58
2020/12/07 11:12:19;;;;;;;13.20;11.90;;;23.30;40.50;;;;;;5014323;28;20231;-57
2020/12/07 11:14:51;;;;;;;14.37;12.23;;;22.20;44.20;;;;;;5028251;28;20855;-57
2020/12/07 11:17:17;;;;;;;14.07;12.27;;;21.60;45.30;;;;;;5023159;28;20226;-58
2020/12/07 11:19:44;;;;;;;14.53;12.00;;;21.30;46.20;;;;;;5027066;28;20226;-57
2020/12/07 11:22:11;;;;;;;14.57;11.97;;;21.00;46.70;;;;;;5023529;28;20233;-59
2020/12/07 11:24:43;;;;;;;13.30;11.77;;;20.80;47.30;;;;;;5017286;28;20227;-58
2020/12/07 11:27:09;;;;;;;13.83;11.70;;;20.70;47.60;;;;;;5004031;28;20232;-58
2020/12/07 11:29:35;;;;;;;13.43;12.03;;;20.50;47.80;;;;;;5021546;28;20887;-58
2020/12/07 11:32:01;;;;;;;12.63;11.33;;;20.40;47.90;;;;;;5017491;28;20227;-58
2020/12/07 11:34:27;;;;;;;13.67;12.17;;;20.30;48.20;;;;;;5025835;28;20574;-58
2020/12/07 11:36:54;;;;;;;14.77;12.23;;;20.30;48.40;;;;;;5021778;28;20230;-59
2020/12/07 11:39:40;;;;;;;14.40;12.40;;;20.20;48.60;;;;;;5027179;28;20594;-58
2020/12/07 11:44:34;;;;;;;17.40;12.47;;;20.10;48.70;;;;;;5027568;28;20392;-56
2020/12/07 11:47:09;;;;;;;17.63;12.20;;;20.00;48.70;;;;;;5023124;28;20238;-56
2020/12/07 11:49:37;;;;;;;15.93;12.83;;;20.00;48.80;;;;;;5018872;28;20242;-56
2020/12/07 11:52:04;;;;;;;15.57;12.83;;;20.00;48.80;;;;;;5000269;28;20289;-56
2020/12/07 11:54:31;;;;;;;16.57;12.50;;;19.90;48.80;;;;;;5014991;28;20222;-56
2020/12/07 11:57:02;;;;;;;18.03;12.27;;;19.80;49.40;;;;;;5024067;28;21076;-57
2020/12/07 11:59:34;;;;;;;15.97;12.70;;;19.90;48.80;;;;;;5024168;28;20659;-58
2020/12/07 12:02:00;;;;;;;14.53;11.63;;;19.80;50.50;;;;;;5027313;28;20813;-59
2020/12/07 12:04:26;;;;;;;14.40;11.20;;;20.00;50.20;;;;;;4996688;28;20228;-59
2020/12/07 12:06:52;;;;;;;12.83;11.50;;;20.20;50.20;;;;;;5008228;28;20226;-58
2020/12/07 12:09:18;;;;;;;14.53;11.43;;;20.20;49.90;;;;;;5000966;28;20231;-58
2020/12/07 12:11:45;;;;;;;14.53;11.93;;;20.30;49.90;;;;;;5017985;28;20372;-58
2020/12/07 12:14:12;;;;;;;14.20;11.03;;;20.40;50.00;;;;;;5012063;28;20765;-60
2020/12/07 12:16:39;;;;;;;14.63;11.20;;;20.40;50.10;;;;;;5026326;28;20234;-58
2020/12/07 12:19:07;;;;;;;16.43;12.40;;;20.50;50.30;;;;;;5013208;28;20226;-58
2020/12/07 12:21:36;;;;;;;12.43;11.07;;;20.50;50.20;;;;;;5015976;28;20223;-59
2020/12/07 12:24:05;;;;;;;13.30;10.73;;;20.50;49.90;;;;;;5014345;28;20623;-58
2020/12/07 12:26:33;;;;;;;13.63;10.87;;;20.50;50.10;;;;;;5024190;28;20218;-58
2020/12/07 12:29:00;;;;;;;13.67;10.67;;;20.50;50.10;;;;;;5017761;28;20242;-57
2020/12/07 12:31:26;;;;;;;13.50;10.60;;;20.60;49.90;;;;;;5022050;28;20231;-57
2020/12/07 12:33:53;;;;;;;12.03;10.73;;;20.50;49.70;;;;;;5003597;28;20219;-58
2020/12/07 12:36:25;;;;;;;14.30;11.67;;;20.50;49.40;;;;;;5002494;28;20231;-57
2020/12/07 12:38:54;;;;;;;13.37;11.17;;;20.60;50.30;;;;;;5003563;28;24451;-58
2020/12/07 12:41:20;;;;;;;12.27;11.03;;;20.60;50.30;;;;;;5019327;28;20241;-57
2020/12/07 12:43:47;;;;;;;12.63;10.93;;;20.60;49.60;;;;;;5026430;28;20226;-57
2020/12/07 12:46:13;;;;;;;14.90;11.10;;;20.60;49.80;;;;;;5017464;28;20215;-60
2020/12/07 12:48:40;;;;;;;13.83;11.67;;;20.60;49.90;;;;;;5024985;28;20226;-60
2020/12/07 12:51:08;;;;;;;13.53;11.37;;;20.60;50.00;;;;;;5016269;28;20219;-60
2020/12/07 12:53:35;;;;;;;14.23;10.90;;;20.60;50.20;;;;;;5006601;28;20220;-59
2020/12/07 12:56:11;;;;;;;11.80;10.53;;;20.50;49.60;;;;;;4996406;28;20615;-58
2020/12/07 12:58:38;;;;;;;11.90;10.50;;;20.50;50.30;;;;;;5017358;28;20229;-57
2020/12/07 13:01:06;;;;;;;13.90;12.33;;;20.50;50.00;;;;;;5019408;28;20664;-57
2020/12/07 13:03:32;;;;;;;13.60;11.37;;;20.30;48.30;;;;;;5020798;28;20215;-57
2020/12/07 13:05:59;;;;;;;15.27;11.60;;;20.30;49.50;;;;;;5010604;28;20230;-58
2020/12/07 13:08:25;;;;;;;14.10;11.67;;;20.30;49.50;;;;;;5006508;28;20220;-58
2020/12/07 13:10:52;;;;;;;13.43;11.00;;;20.40;49.60;;;;;;5013040;28;20879;-58
2020/12/07 13:13:18;;;;;;;12.30;11.00;;;20.40;49.60;;;;;;5025010;28;20238;-57
2020/12/07 13:15:54;;;;;;;12.50;11.20;;;20.40;49.60;;;;;;5018341;28;20233;-57
2020/12/07 13:18:20;;;;;;;16.57;10.73;;;20.50;49.50;;;;;;5025412;28;20240;-58